Parks, Louisiana
Current Conditions -  °F | °C
As of 3:53 PM on Monday 22 Dec 2014 (Local Time) from KLFT Reporting Station
Broken Clouds Broken Clouds  
Wind Chill: 74°   Ceiling: 3500
Heat Index: 74°   Visibility: 10mi
Dew Point: 63°   Wind: 16mph
Humidity: 68%   Direction: 200°SSW
Pressure: 29.66"   Gusts: 22mph
Location:  30.2235°N, 91.7772°W
Report Text: KLFT 222153Z 20014G19KT 10SM SCT029 BKN035 23/17 A2966 RMK AO2 PK WND 22029/2119 SLP043 T02330172
Loading
Personal Weather Stations






























Interactive Weather Map New forecast layout! Learn more

10-Day Weather Forecast

Advertisements
Track Severe Weather on mobile